Flight Track Log - Related Links

Times and Time Zones

All times are in EDT time to prevent confusion due to time zone crossing. See the JAI305 flight status page for this flight to view local times or setup timezone preferences in your user account.

Time Position Orientation Groundspeed Altitude Reporting Facility
EDT Latitude Longitude Course Direction KTS MPH feet Rate Location/Type
Fri 08:16:23 PM 19.0930 72.8720 North  Level FlightAware
Fri 08:16:33 PM 19.0930 72.8710 270° West 67 Level FlightAware
Fri 08:17:13 PM 19.0930 72.8720 90° East 68 Level FlightAware
Fri 08:18:08 PM 19.0930 72.8710 270° West 71 Level FlightAware
Fri 08:19:37 PM 19.0930 72.8720 90° East 75 Level FlightAware
Fri 08:22:00 PM 19.3093 72.9618 21° North  Level Estimated
Fri 08:22:27 PM 19.0920 72.8710 21° North 10 12  Level FlightAware
Fri 08:25:00 PM 19.3234 72.9671 21° North  Level Estimated
Fri 08:26:00 PM 19.4142 73.0049 21° North  Level Estimated
Fri 08:26:16 PM 19.0920 72.8730 21° North 27 31  Level FlightAware
Fri 08:26:42 PM 19.0910 72.8730 180° South 29 33 151 Level FlightAware
Fri 08:27:12 PM 19.0910 72.8750 90° East 33 38 160 Level FlightAware
Fri 08:27:39 PM 19.0910 72.8760 90° East 33 38 171 Level FlightAware
Fri 08:28:36 PM 19.0910 72.8790 90° East 14 16 183 Level FlightAware
Fri 08:29:28 PM 19.0910 72.8800 90° East 2 2 214 Level FlightAware
Fri 08:31:40 PM 19.0900 72.8800 180° South 16 18 254 Level FlightAware
Fri 08:31:52 PM 19.0900 72.8810 90° East 15 17 474 Level FlightAware
Fri 08:32:32 PM 19.0890 72.8810 180° South 14 16 514 Level FlightAware
Fri 08:32:55 PM 19.0890 72.8800 270° West 12 14 720 Level FlightAware
Fri 08:33:23 PM 19.0890 72.8790 270° West 37 43 935 Level FlightAware
Fri 08:34:12 PM 19.0890 72.8480 270° West 150 173 1,200 1,680 Climbing FlightAware
Fri 08:34:38 PM 19.0890 72.8280 270° West 159 183 2,100 1,667 Climbing FlightAware
Fri 08:35:06 PM 19.0880 72.8050 267° West 194 223 2,700 1,696 Climbing FlightAware
Fri 08:35:24 PM 19.0880 72.7860 270° West 212 244 3,400 1,909 Climbing FlightAware
Fri 08:35:50 PM 19.1000 72.7580 294° West 258 297 4,100 1,895 Climbing FlightAware
Fri 08:36:02 PM 19.1130 72.7510 333° Northwest 273 314 4,600 2,800 Climbing FlightAware
Fri 08:36:20 PM 19.1360 72.7480 353° North 280 322 5,500 2,923 Climbing FlightAware
Fri 08:36:41 PM 19.1620 72.7420 348° North 285 328 6,500 3,000 Climbing FlightAware
Fri 08:37:10 PM 19.2010 72.7340 349° North 288 331 8,000 3,053 Climbing FlightAware
Fri 08:37:38 PM 19.2370 72.7250 347° North 292 336 9,400 3,000 Climbing FlightAware
Fri 08:37:50 PM 19.2540 72.7210 347° North 297 342 10,000 2,939 Climbing FlightAware
Fri 08:38:27 PM 19.3040 72.7120 350° North 303 349 11,800 2,813 Climbing FlightAware
Fri 08:38:54 PM 19.3420 72.7190 10° North 311 358 13,000 1,970 Climbing FlightAware
Fri 08:39:34 PM 19.4030 72.7290 North 349 402 14,000 1,976 Climbing FlightAware
Fri 08:40:16 PM 19.4720 72.7400 North 366 421 15,700 2,442 Climbing FlightAware
Fri 08:41:00 PM 19.5470 72.7520 North 379 436 17,500 2,500 Climbing FlightAware
Fri 08:41:40 PM 19.6180 72.7620 North 386 444 19,200 2,286 Climbing FlightAware
Fri 08:42:24 PM 19.6970 72.7750 North 399 459 20,700 2,071 Climbing FlightAware
Fri 08:43:04 PM 19.7710 72.7870 North 408 470 22,100 2,167 Climbing FlightAware
Fri 08:43:36 PM 19.8310 72.7970 North 412 474 23,300 2,091 Climbing FlightAware
Fri 08:44:10 PM 19.8930 72.8070 North 418 481 24,400 1,816 Climbing FlightAware
Fri 08:44:52 PM 19.9790 72.8210 North 430 495 25,600 1,538 Climbing FlightAware
Fri 08:45:28 PM 20.0490 72.8320 North 440 506 26,400 1,537 Climbing FlightAware
Fri 08:46:14 PM 20.1450 72.8470 North 448 516 27,700 1,733 Climbing FlightAware
Fri 08:46:58 PM 20.2370 72.8620 North 450 518 29,000 1,537 Climbing FlightAware
Fri 08:47:36 PM 20.3140 72.8740 North 459 528 29,800 1,125 Climbing FlightAware
Fri 08:48:18 PM 20.4040 72.8890 North 472 543 30,500 1,077 Climbing FlightAware
Fri 08:48:54 PM 20.4840 72.9020 North 477 549 31,200 1,462 Climbing FlightAware
Fri 08:49:36 PM 20.5740 72.9160 North 472 543 32,400 1,714 Climbing FlightAware
Fri 08:50:18 PM 20.6650 72.9310 North 465 535 33,600 1,725 Climbing FlightAware
Fri 08:50:56 PM 20.7460 72.9440 North 461 531 34,700 1,538 Climbing FlightAware
Fri 08:51:36 PM 20.8310 72.9490 North 461 531 35,600 1,317 Climbing FlightAware
Fri 08:52:18 PM 20.9220 72.9520 North 461 531 36,500 815 Climbing FlightAware
Fri 08:52:57 PM 20.9940 72.9550 North 461 531 36,700 1,047 Climbing FlightAware
Fri 08:53:44 PM 21.1030 72.9590 North 461 531 38,000 1,348 Climbing FlightAware
Fri 08:54:26 PM 21.1930 72.9680 North 450 518 38,700 625 Climbing FlightAware
Fri 08:55:20 PM 21.2890 73.0010 18° North 441 507 39,000 200 Climbing FlightAware
Fri 08:55:56 PM 21.3480 73.0230 19° North 441 507 39,000  Level FlightAware
Fri 08:56:32 PM 21.4070 73.0450 19° North 441 507 39,000  Level FlightAware
Fri 08:57:20 PM 21.4860 73.0740 19° North 441 507 39,000  Level FlightAware
Fri 08:57:54 PM 21.5920 73.1200 22° Northeast 441 507 39,000  Level FlightAware
Fri 08:58:32 PM 21.6650 73.1480 20° North 442 509 39,000  Level FlightAware
Fri 08:59:12 PM 21.7310 73.1720 19° North 442 509 39,000  Level FlightAware
Fri 09:00:00 PM 21.8100 73.2010 19° North 442 509 39,000  Level FlightAware
Fri 09:00:36 PM 21.8690 73.2230 19° North 442 509 39,000  Level FlightAware
Fri 09:01:22 PM 21.9450 73.2510 19° North 442 509 39,000  Level FlightAware
Fri 09:01:58 PM 22.0040 73.2730 19° North 442 509 39,000  Level FlightAware
Fri 09:02:46 PM 22.0830 73.3030 19° North 442 509 39,000  Level FlightAware
Fri 09:03:22 PM 22.1420 73.3250 19° North 442 509 39,000  Level FlightAware
Fri 09:04:10 PM 22.2210 73.3540 19° North 442 509 39,000  Level FlightAware
Fri 09:04:46 PM 22.2800 73.3760 19° North 442 509 39,000  Level FlightAware
Fri 09:05:34 PM 22.3590 73.4050 19° North 442 509 39,000  Level FlightAware
Fri 09:06:44 PM 22.4740 73.4480 19° North 442 509 39,000  Level FlightAware
Fri 09:07:44 PM 22.5730 73.4850 19° North 442 509 39,000  Level FlightAware
Fri 09:08:20 PM 22.6320 73.5070 19° North 442 509 39,000  Level FlightAware
Fri 09:11:00 PM 22.8382 73.6254 28° Northeast  Level Estimated
Fri 09:12:00 PM 22.9154 73.6700 28° Northeast  Level Estimated
Fri 09:12:21 PM 23.2630 73.7740 28° Northeast 440 506 39,000  Level FlightAware
Fri 09:13:05 PM 23.3470 73.8080 20° North 439 505 39,000  Level FlightAware
Fri 09:13:37 PM 23.4060 73.8310 20° North 437 503 39,000  Level FlightAware
Fri 09:14:21 PM 23.4900 73.8650 20° North 436 502 39,000  Level FlightAware
Fri 09:15:18 PM 23.5990 73.9080 20° North 435 501 39,000  Level FlightAware
Fri 09:16:08 PM 23.6860 73.9430 20° North 436 502 39,000  Level FlightAware
Fri 09:16:54 PM 23.7820 73.9810 20° North 437 503 39,000  Level FlightAware
Fri 09:17:38 PM 23.8650 74.0150 21° North 438 504 39,000  Level FlightAware
Fri 09:18:14 PM 23.9350 74.0430 20° North 439 505 39,000  Level FlightAware
Fri 09:18:54 PM 24.0100 74.0730 20° North 440 506 39,000  Level FlightAware
Fri 09:19:34 PM 24.0870 74.1040 20° North 440 506 39,000  Level FlightAware
Fri 09:20:20 PM 24.1770 74.1400 20° North 440 506 39,000  Level FlightAware
Fri 09:20:52 PM 24.2360 74.1640 20° North 440 506 39,000  Level FlightAware
Fri 09:21:36 PM 24.3200 74.1980 20° North 440 506 39,000  Level FlightAware
Fri 09:22:16 PM 24.3970 74.2290 20° North 440 506 39,000  Level FlightAware
Fri 09:22:56 PM 24.4750 74.2600 20° North 441 507 39,000  Level FlightAware
Fri 09:23:40 PM 24.5590 74.2950 21° North 442 509 39,000  Level FlightAware
Fri 09:24:24 PM 24.6430 74.3290 20° North 442 509 39,000  Level FlightAware
Fri 09:25:04 PM 24.7200 74.3600 20° North 443 510 39,000  Level FlightAware
Fri 09:25:38 PM 24.7860 74.3870 20° North 442 509 39,000  Level FlightAware
Fri 09:26:22 PM 24.8700 74.4210 20° North 443 510 39,000  Level FlightAware
Fri 09:27:06 PM 24.9550 74.4560 20° North 442 509 39,000  Level FlightAware
Fri 09:27:47 PM 25.0320 74.4870 20° North 441 507 39,000  Level FlightAware
Fri 09:28:27 PM 25.1100 74.5190 20° North 442 509 39,000  Level FlightAware
Fri 09:29:11 PM 25.1960 74.5540 20° North 442 509 39,000  Level FlightAware
Fri 09:29:51 PM 25.2710 74.5850 20° North 441 507 39,000  Level FlightAware
Fri 09:30:59 PM 25.3900 74.6340 20° North 441 507 39,000  Level FlightAware
Fri 09:31:43 PM 25.4850 74.6740 21° North 441 507 39,000  Level FlightAware
Fri 09:32:25 PM 25.5660 74.7070 20° North 442 509 39,000  Level FlightAware
Fri 09:33:06 PM 25.6440 74.7400 21° North 443 510 39,000  Level FlightAware
Fri 09:33:41 PM 25.7120 74.7680 20° North 445 512 39,000  Level FlightAware
Fri 09:34:22 PM 25.7910 74.8010 21° North 445 512 39,000  Level FlightAware
Fri 09:35:03 PM 25.8700 74.8330 20° North 447 514 39,000  Level FlightAware
Fri 09:35:41 PM 25.9460 74.8650 21° North 447 514 39,000  Level FlightAware
Fri 09:36:22 PM 26.0230 74.8980 21° North 448 516 39,000  Level FlightAware
Fri 09:37:05 PM 26.1080 74.9330 20° North 449 517 39,000  Level FlightAware
Fri 09:37:47 PM 26.1890 74.9670 21° North 449 517 39,000  Level FlightAware
Fri 09:38:26 PM 26.2650 74.9990 21° North 448 516 39,000  Level FlightAware
Fri 09:39:12 PM 26.3540 75.0360 20° North 450 518 39,000  Level FlightAware
Fri 09:39:51 PM 26.4300 75.0680 21° North 450 518 39,000  Level FlightAware
Fri 09:40:32 PM 26.5100 75.1010 20° North 449 517 39,000  Level FlightAware
Fri 09:41:07 PM 26.5800 75.1300 20° North 450 518 39,000  Level FlightAware
Fri 09:41:51 PM 26.6650 75.1660 21° North 448 516 39,000  Level FlightAware
Fri 09:42:31 PM 26.7430 75.1990 21° North 450 518 39,000  Level FlightAware
Fri 09:43:12 PM 26.8220 75.2320 20° North 451 519 39,000  Level FlightAware
Fri 09:43:58 PM 26.9130 75.2700 20° North 452 520 39,000  Level FlightAware
Fri 09:44:37 PM 26.9900 75.3030 21° North 452 520 39,000 -286 Level FlightAware
Fri 09:45:22 PM 27.0770 75.3400 21° North 454 522 38,600 -767 Descending FlightAware
Fri 09:46:03 PM 27.1580 75.3740 20° North 456 525 37,900 -1,259 Descending FlightAware
Fri 09:46:43 PM 27.2340 75.4190 28° Northeast 451 519 36,900 -1,857 Descending FlightAware
Fri 09:47:27 PM 27.2980 75.4890 44° Northeast 444 511 35,300 -2,182 Descending FlightAware
Fri 09:48:11 PM 27.3620 75.5600 45° Northeast 435 501 33,700 -2,071 Descending FlightAware
Fri 09:48:51 PM 27.4200 75.6230 44° Northeast 427 491 32,400 -1,950 Descending FlightAware
Fri 09:49:31 PM 27.4760 75.6850 44° Northeast 417 480 31,100 -1,974 Descending FlightAware
Fri 09:50:07 PM 27.5240 75.7380 44° Northeast 409 471 29,900 -1,950 Descending FlightAware
Fri 09:50:51 PM 27.5830 75.8030 44° Northeast 400 460 28,500 -1,929 Descending FlightAware
Fri 09:51:31 PM 27.6340 75.8610 45° Northeast 392 451 27,200 -1,895 Descending FlightAware
Fri 09:52:07 PM 27.6820 75.9070 40° Northeast 387 445 26,100 -1,891 Descending FlightAware
Fri 09:53:03 PM 27.7580 75.9800 40° Northeast 379 436 24,300 -1,871 Descending FlightAware
Fri 09:53:40 PM 27.8070 76.0280 41° Northeast 372 428 23,200 -1,683 Descending FlightAware
Fri 09:54:25 PM 27.8550 76.0750 41° Northeast 366 421 22,000 -1,909 Descending FlightAware
Fri 09:55:08 PM 27.9200 76.1380 41° Northeast 356 410 20,400 -2,000 Descending FlightAware
Fri 09:55:52 PM 27.9760 76.1920 40° Northeast 348 400 19,100 -1,582 Descending FlightAware
Fri 09:56:39 PM 28.0220 76.2360 40° Northeast 343 395 18,000 -1,482 Descending FlightAware
Fri 09:57:17 PM 28.0650 76.2790 41° Northeast 336 387 17,000 -1,663 Descending FlightAware
Fri 09:58:02 PM 28.1180 76.3300 40° Northeast 331 381 15,700 -1,663 Descending FlightAware
Fri 09:58:40 PM 28.1620 76.3730 41° Northeast 328 377 14,700 -1,590 Descending FlightAware
Fri 09:59:25 PM 28.2130 76.4230 41° Northeast 323 372 13,500 -1,475 Descending FlightAware
Fri 10:00:42 PM 28.2720 76.5200 55° Northeast 308 354 11,700 -1,700 Descending FlightAware
Fri 10:01:25 PM 28.3140 76.5990 59° Northeast 293 337 10,100 -1,543 Descending FlightAware
Fri 10:01:52 PM 28.3310 76.6340 61° Northeast 272 313 9,900 -750 Descending FlightAware
Fri 10:02:21 PM 28.3480 76.6650 58° Northeast 266 306 9,400 -1,241 Descending FlightAware
Fri 10:02:50 PM 28.3750 76.6980 47° Northeast 263 303 8,700 -1,368 Descending FlightAware
Fri 10:03:18 PM 28.3980 76.7240 45° Northeast 265 305 8,100 -1,286 Descending FlightAware
Fri 10:03:46 PM 28.4230 76.7530 46° Northeast 262 302 7,500 -1,071 Descending FlightAware
Fri 10:04:14 PM 28.4500 76.7740 34° Northeast 243 280 7,100 -964 Descending FlightAware
Fri 10:04:42 PM 28.4780 76.7830 16° North 226 260 6,600 -1,071 Descending FlightAware
Fri 10:05:10 PM 28.5060 76.7900 12° North 208 239 6,100 -1,138 Descending FlightAware
Fri 10:05:40 PM 28.5330 76.7990 16° North 205 236 5,500 -1,138 Descending FlightAware
Fri 10:06:08 PM 28.5590 76.8060 13° North 204 235 5,000 -900 Descending FlightAware
Fri 10:06:20 PM 28.5670 76.8110 29° Northeast 200 230 4,900 -750 Descending FlightAware
Fri 10:06:32 PM 28.5740 76.8230 56° Northeast 188 216 4,700 -833 Descending FlightAware
Fri 10:06:56 PM 28.5800 76.8460 73° East 176 203 4,400 -667 Descending FlightAware
Fri 10:07:08 PM 28.5830 76.8560 71° East 173 199 4,300 -909 Descending FlightAware
Fri 10:07:29 PM 28.5870 76.8730 75° East 170 196 3,900 -818 Descending FlightAware
Fri 10:07:52 PM 28.5840 76.8930 100° East 169 194 3,700 -511 Descending FlightAware
Fri 10:08:16 PM 28.5790 76.9150 105° East 172 198 3,500 -625 Descending FlightAware
Fri 10:08:40 PM 28.5750 76.9360 102° East 173 199 3,200 -692 Descending FlightAware
Fri 10:09:08 PM 28.5700 76.9610 103° East 175 201 2,900 -750 Descending FlightAware
Fri 10:09:36 PM 28.5640 76.9850 106° East 168 193 2,500 -857 Descending FlightAware
Fri 10:10:04 PM 28.5590 77.0090 103° East 155 178 2,100 -750 Descending FlightAware
Fri 10:10:16 PM 28.5570 77.0180 104° East 150 173 2,000 -577 Descending FlightAware
Fri 10:10:56 PM 28.5530 77.0400 102° East 139 160 1,600 -646 Descending FlightAware
Fri 10:11:21 PM 28.5490 77.0580 104° East 139 160 1,300 -632 Descending FlightAware
Fri 10:11:53 PM 28.5440 77.0810 104° East 137 158 1,000 -563 Descending FlightAware
Fri 10:12:26 PM 28.5530 77.0940 52° Northeast 129 148 -1,818 Descending FlightAware
Fri 10:13:07 PM 28.5440 77.0900 201° Southwest 129 148  Level FlightAware
Fri 10:13:33 PM 28.5410 77.1040 104° East 129 148  Level FlightAware
Fri 10:14:10 PM 28.5460 77.0870 289° West 129 148  Level FlightAware
Fri 10:14:46 PM 28.5610 77.0890 North 129 148  Level FlightAware
Fri 10:15:06 PM 28.5490 77.0880 184° South 129 148  Level FlightAware
Fri 10:16:36 PM 28.5500 77.0880 360° North  Level FlightAware
Fri 10:17:01 PM 28.5510 77.0870 319° Northwest  Level FlightAware
Fri 10:17:42 PM 28.5520 77.0870 360° North  Level FlightAware
Fri 10:20:00 PM 28.5665 77.1031 44° Northeast  Level Estimated
Fri 10:21:00 PM 28.5665 77.1031 270° West  Level Estimated
Fri 10:22:00 PM 28.5665 77.1031 270° West  Level Estimated
Fri 10:23:00 PM 28.5665 77.1031 270° West  Level Estimated
Fri 10:24:00 PM 28.5665 77.1031 270° West  Level Estimated
Fri 10:25:00 PM 28.5665 77.1031 270° West  Level Estimated
Fri 10:26:00 PM 28.5665 77.1031 270° West  Level Estimated
Fri 10:27:00 PM 28.5665 77.1031 270° West  Level Estimated
Fri 10:28:00 PM 28.5665 77.1031 270° West  Level Estimated

Login

Don't have an account? Register now (free) for customized features, flight alerts, and more!